Terminal Aerodrome Forecast
Issued by NWS

Home | Current Version | Previous Version | Text Only | Print | Product List | Glossary Off
Versions: 1 2 3 4 5 6 7 8 9 10 11 12 13 14 15 16 17 18 19

697
FTUS43 KBIS 181134
TAFMOT
TAF
KMOT 181134Z 1812/1912 15005KT P6SM SKC
     FM181900 15008KT P6SM FEW300
     FM190300 13009KT P6SM BKN130
     FM190900 11011KT P6SM BKN110 WS020/15040KT=

USA.gov is the U.S. government's official web portal to all federal, state and local government web resources and services.